Apgar, Montana
Current Conditions -  °F | °C
As of 6:55 PM on Monday 24 Nov 2014 (Local Time) from KGPI Reporting Station
Overcast Overcast  
Wind Chill: -4°   Ceiling: 1000
Heat Index:   Visibility: 10mi
Dew Point: -1°   Wind: 12mph
Humidity: 89%   Direction: 170°S
Pressure: 30.17"   Gusts: NA
Location:  48.5033°N, 113.981°W
Report Text: KGPI 250155Z 17010KT 10SM BKN010 BKN014 OVC040 01/M01 A3017 RMK AO2 SLP243 T00111006
Loading
Personal Weather Stations






























Interactive Weather Map New forecast layout! Learn more

10-Day Weather Forecast

Advertisements
Track Severe Weather on mobile